Hauptseite
METAR-TAF:

METAR-TAF

Flughäfen :

RAF Wittering

Wittering, England

Breite: 52-37N, Länge: 000-28W, Höhe: 84 m

Beobachtung

Neuester Wetterbericht von vor 38 Minuten, um 03:50 UTC
Wind 5 kt aus West/Südwest
Temperatur 6°C
Luftfeuchtigkeit 100%
Luftdruck 1007 hPa
Sichtweite: 2400 m
feuchter Dunst

METAR: EGXT 170350Z AUTO 24005KT 2400 BR BKN004/// SCT026/// BKN050/// 06/06 Q1007 REDZ

Zeit: 04:28 (04:28 UTC)


TAF: fehlend

Wetterbeobachtungen und Prognosen von mehr als 4000 Flughäfen (METAR und TAF Bericht).

Die verfügbaren Stationen werden durch gelbe und rote Markierungen auf der Karte dargestellt.

Führen Sie die Maus auf sie, um den Namen der Station zu sehen.

Darauf klicken, um die Beobachtung von Wetterbeobachtungen und Prognosen zu sehen.

Um die Karte zu ändern : klicken Sie auf den grünen Tasten mit einem schwarzen Kreuz Zum Vergrößern, auf den grünen Button mit einem Gedankenstrich zu verkleinern, oder auf die grünen Pfeile für benachbarte Karten.


METAR-TAF: